Time;durP1;ratioP1;P1;durP2;ratioP2;P2;SDS_P1;SDS_P2;PMS_P1;PMS_P2;Temp;Humidity;BMP_temperature;BMP_pressure;BME280_temperature;BME280_humidity;BME280_pressure;Samples;Min_cycle;Max_cycle;Signal;HPM_P1;HPM_P2
2022/04/09 00:00:22;;;;;;;6.50;2.10;;;;;;;-145.70;100.00;64261.84;5046577;28;20048;-80
2022/04/09 00:02:48;;;;;;;10.48;2.28;;;;;;;-145.70;100.00;64261.84;5048191;28;20037;-80
2022/04/09 00:05:13;;;;;;;10.18;2.53;;;;;;;-145.70;100.00;64261.84;5042489;28;20045;-79
2022/04/09 00:07:40;;;;;;;8.77;2.00;;;;;;;-145.70;100.00;64261.84;5041954;28;20045;-81
2022/04/09 00:10:08;;;;;;;8.30;2.50;;;;;;;-145.70;100.00;64261.84;5063927;22;20061;-81
2022/04/09 00:12:35;;;;;;;11.82;2.65;;;;;;;-145.70;100.00;64261.84;5023198;28;20124;-83
2022/04/09 00:15:00;;;;;;;7.72;2.78;;;;;;;-145.70;100.00;64261.84;5005469;28;20053;-82
2022/04/09 00:17:26;;;;;;;6.93;2.45;;;;;;;-145.70;100.00;64261.84;5021013;28;20045;-84
2022/04/09 00:19:52;;;;;;;5.85;1.90;;;;;;;-145.70;100.00;64261.84;5022420;28;20041;-83
2022/04/09 00:22:18;;;;;;;9.82;2.20;;;;;;;-145.70;100.00;64261.84;4991751;28;20096;-84
2022/04/09 00:24:43;;;;;;;6.88;2.08;;;;;;;-145.70;100.00;64261.84;4995875;28;20044;-84
2022/04/09 00:27:08;;;;;;;8.05;2.38;;;;;;;-145.70;100.00;64261.84;5013573;28;20045;-83
2022/04/09 00:29:34;;;;;;;6.40;2.25;;;;;;;-145.70;100.00;64261.84;5019875;28;20065;-82
2022/04/09 00:32:00;;;;;;;12.05;2.50;;;;;;;-145.70;100.00;64261.84;5023417;28;20823;-82
2022/04/09 00:34:25;;;;;;;8.48;1.92;;;;;;;-145.70;100.00;64261.84;5015115;28;20053;-82
2022/04/09 00:36:50;;;;;;;13.05;1.60;;;;;;;-145.70;100.00;64261.84;5018791;28;20036;-83
2022/04/09 00:39:16;;;;;;;7.60;1.70;;;;;;;-145.70;100.00;64261.84;5020708;28;20041;-83
2022/04/09 00:41:47;;;;;;;5.20;1.75;;;;;;;-145.70;100.00;64261.84;5024341;28;20092;-83
2022/04/09 00:44:19;;;;;;;13.48;1.90;;;;;;;-145.70;100.00;64261.84;5014437;28;20129;-84
2022/04/09 00:46:45;;;;;;;9.10;2.08;;;;;;;-145.70;100.00;64261.84;5007261;28;20068;-84
2022/04/09 00:49:12;;;;;;;16.25;3.67;;;;;;;-145.70;100.00;64261.84;5008917;28;20517;-81
2022/04/09 00:51:41;;;;;;;11.02;2.03;;;;;;;-145.70;100.00;64261.84;5010212;28;20034;-82
2022/04/09 00:54:07;;;;;;;10.87;2.53;;;;;;;-145.70;100.00;64261.84;5010747;28;20560;-82
2022/04/09 00:56:35;;;;;;;8.05;2.20;;;;;;;-145.70;100.00;64261.84;4999139;28;20045;-85
2022/04/09 00:59:02;;;;;;;10.85;2.78;;;;;;;-145.70;100.00;64261.84;5005621;28;20046;-83
2022/04/09 01:01:32;;;;;;;7.97;2.03;;;;;;;-145.70;100.00;64261.84;4988716;28;20042;-84
2022/04/09 01:03:59;;;;;;;9.15;3.05;;;;;;;-145.70;100.00;64261.84;4997062;28;20493;-83
2022/04/09 01:06:25;;;;;;;10.15;2.58;;;;;;;-145.70;100.00;64261.84;5008241;28;20061;-83
2022/04/09 01:08:50;;;;;;;9.43;2.90;;;;;;;-145.70;100.00;64261.84;5010265;28;20037;-83
2022/04/09 01:11:16;;;;;;;12.05;2.63;;;;;;;-145.70;100.00;64261.84;5010709;28;20037;-84
2022/04/09 01:13:42;;;;;;;7.45;2.35;;;;;;;-145.70;100.00;64261.84;5015037;28;20042;-83
2022/04/09 01:16:07;;;;;;;11.15;2.40;;;;;;;-145.70;100.00;64261.84;5015050;28;20034;-85
2022/04/09 01:18:34;;;;;;;9.07;2.33;;;;;;;-145.70;100.00;64261.84;5018017;28;20065;-84
2022/04/09 01:21:03;;;;;;;9.52;2.03;;;;;;;-145.70;100.00;64261.84;5016061;28;20041;-84
2022/04/09 01:23:31;;;;;;;9.88;2.53;;;;;;;-145.70;100.00;64261.84;5011004;28;20034;-83
2022/04/09 01:25:59;;;;;;;9.80;3.03;;;;;;;-145.70;100.00;64261.84;5013269;28;20045;-84
2022/04/09 01:28:25;;;;;;;4.90;2.15;;;;;;;-145.70;100.00;64261.84;5027126;28;20107;-82
2022/04/09 01:30:50;;;;;;;7.30;1.70;;;;;;;-145.70;100.00;64261.84;4994213;28;20046;-81
2022/04/09 01:33:20;;;;;;;7.03;2.00;;;;;;;-145.70;100.00;64261.84;5014680;28;20095;-84
2022/04/09 01:35:46;;;;;;;14.60;3.38;;;;;;;-145.70;100.00;64261.84;5013958;28;20038;-83
2022/04/09 01:38:12;;;;;;;10.65;2.03;;;;;;;-145.70;100.00;64261.84;5022653;28;20114;-83
2022/04/09 01:40:38;;;;;;;9.23;2.75;;;;;;;-145.70;100.00;64261.84;5022867;28;20042;-84
2022/04/09 01:43:03;;;;;;;7.30;1.77;;;;;;;-145.70;100.00;64261.84;5014881;28;20046;-82
2022/04/09 01:45:29;;;;;;;7.22;1.75;;;;;;;-145.70;100.00;64261.84;5015825;28;20037;-83
2022/04/09 01:47:55;;;;;;;12.48;2.83;;;;;;;-145.70;100.00;64261.84;5011136;28;20124;-83
2022/04/09 01:50:23;;;;;;;13.77;2.75;;;;;;;-145.70;100.00;64261.84;5015771;28;20113;-83
2022/04/09 01:52:48;;;;;;;9.55;2.40;;;;;;;-145.70;100.00;64261.84;5024129;28;20041;-83
2022/04/09 01:55:14;;;;;;;9.93;2.90;;;;;;;-145.70;100.00;64261.84;5022484;28;20069;-84
2022/04/09 01:57:40;;;;;;;5.43;1.85;;;;;;;-145.70;100.00;64261.84;5025630;28;21617;-82
2022/04/09 02:00:10;;;;;;;6.13;2.35;;;;;;;-145.70;100.00;64261.84;5015117;28;20042;-85
2022/04/09 02:02:35;;;;;;;12.13;2.97;;;;;;;-145.70;100.00;64261.84;5013105;28;20034;-84
2022/04/09 02:05:02;;;;;;;10.57;2.25;;;;;;;-145.70;100.00;64261.84;5011793;28;20045;-81
2022/04/09 02:07:27;;;;;;;11.90;3.25;;;;;;;-145.70;100.00;64261.84;5012177;28;20043;-84
2022/04/09 02:09:54;;;;;;;8.50;2.00;;;;;;;-145.70;100.00;64261.84;4986690;28;20532;-84
2022/04/09 02:12:19;;;;;;;10.25;2.42;;;;;;;-145.70;100.00;64261.84;5020722;28;20467;-80
2022/04/09 02:14:45;;;;;;;12.55;2.40;;;;;;;-145.70;100.00;64261.84;5016963;28;20050;-84
2022/04/09 02:17:11;;;;;;;10.63;2.40;;;;;;;-145.70;100.00;64261.84;5025906;28;20025;-83
2022/04/09 02:19:36;;;;;;;13.65;3.00;;;;;;;-145.70;100.00;64261.84;5026876;28;20095;-83
2022/04/09 02:22:02;;;;;;;11.70;3.05;;;;;;;-145.70;100.00;64261.84;5015357;28;20144;-83
2022/04/09 02:24:27;;;;;;;10.98;3.10;;;;;;;-145.70;100.00;64261.84;4993581;28;20042;-83
2022/04/09 02:26:53;;;;;;;9.68;2.33;;;;;;;-145.70;100.00;64261.84;5009220;28;20149;-82
2022/04/09 02:29:18;;;;;;;13.73;3.10;;;;;;;-145.70;100.00;64261.84;4996723;28;20048;-82
2022/04/09 02:31:43;;;;;;;10.18;2.15;;;;;;;-145.70;100.00;64261.84;5009074;28;20750;-83
2022/04/09 02:34:09;;;;;;;17.73;3.70;;;;;;;-145.70;100.00;64261.84;5018791;28;20053;-83
2022/04/09 02:36:36;;;;;;;10.73;2.92;;;;;;;-145.70;100.00;64261.84;5017812;28;20037;-85
2022/04/09 02:39:01;;;;;;;15.50;3.15;;;;;;;-145.70;100.00;64261.84;5011836;28;20405;-82
2022/04/09 02:41:29;;;;;;;13.40;3.17;;;;;;;-145.70;100.00;64261.84;5014871;28;20041;-83
2022/04/09 02:43:54;;;;;;;12.00;2.72;;;;;;;-145.70;100.00;64261.84;5013453;28;20448;-84
2022/04/09 02:46:21;;;;;;;15.57;2.83;;;;;;;-145.70;100.00;64261.84;5019285;28;20045;-83
2022/04/09 02:48:46;;;;;;;19.15;4.55;;;;;;;-145.70;100.00;64261.84;5018219;28;21007;-82
2022/04/09 02:51:12;;;;;;;11.25;2.78;;;;;;;-145.70;100.00;64261.84;5016117;28;20040;-83
2022/04/09 02:53:38;;;;;;;15.98;4.00;;;;;;;-145.70;100.00;64261.84;5014064;28;20057;-83
2022/04/09 02:56:04;;;;;;;12.48;2.92;;;;;;;-145.70;100.00;64261.84;5024791;28;20053;-84
2022/04/09 02:58:29;;;;;;;11.68;3.20;;;;;;;-145.70;100.00;64261.84;5025517;28;20132;-83
2022/04/09 03:00:54;;;;;;;16.45;4.47;;;;;;;-145.70;100.00;64261.84;5004099;28;20044;-82
2022/04/09 03:03:20;;;;;;;8.75;2.80;;;;;;;-145.70;100.00;64261.84;5004592;28;20049;-84
2022/04/09 03:05:45;;;;;;;12.90;3.15;;;;;;;-145.70;100.00;64261.84;5020964;28;20033;-82
2022/04/09 03:08:10;;;;;;;12.82;3.10;;;;;;;-145.70;100.00;64261.84;5025646;28;20040;-83
2022/04/09 03:10:36;;;;;;;7.57;2.30;;;;;;;-145.70;100.00;64261.84;5014532;28;20049;-85
2022/04/09 03:13:04;;;;;;;12.68;2.65;;;;;;;-145.70;100.00;64261.84;5017203;28;20459;-83
2022/04/09 03:15:29;;;;;;;9.07;2.08;;;;;;;-145.70;100.00;64261.84;5021698;28;20053;-83
2022/04/09 03:17:55;;;;;;;12.38;2.47;;;;;;;-145.70;100.00;64261.84;5016109;28;20594;-84
2022/04/09 03:20:20;;;;;;;11.13;3.42;;;;;;;-145.70;100.00;64261.84;4997746;28;20054;-84
2022/04/09 03:22:47;;;;;;;13.85;2.42;;;;;;;-145.70;100.00;64261.84;5021138;28;20044;-84
2022/04/09 03:25:12;;;;;;;10.32;2.28;;;;;;;-145.70;100.00;64261.84;5009723;28;20098;-85
2022/04/09 03:27:38;;;;;;;12.10;2.85;;;;;;;-145.70;100.00;64261.84;5016486;28;20469;-83
2022/04/09 03:30:05;;;;;;;12.98;3.45;;;;;;;-145.70;100.00;64261.84;5010390;28;20041;-83
2022/04/09 03:32:30;;;;;;;13.52;3.95;;;;;;;-145.70;100.00;64261.84;5007887;28;20610;-85
2022/04/09 03:34:57;;;;;;;12.88;2.83;;;;;;;-145.70;100.00;64261.84;5021464;28;20061;-83
2022/04/09 03:37:22;;;;;;;10.40;2.38;;;;;;;-145.70;100.00;64261.84;4999240;28;20083;-81
2022/04/09 03:39:49;;;;;;;7.85;2.03;;;;;;;-145.70;100.00;64261.84;4997841;28;20053;-81
2022/04/09 03:42:15;;;;;;;10.90;3.42;;;;;;;-145.70;100.00;64261.84;5011453;28;20132;-83
2022/04/09 03:44:40;;;;;;;14.55;3.70;;;;;;;-145.70;100.00;64261.84;5001619;28;20125;-86
2022/04/09 03:47:06;;;;;;;9.30;3.53;;;;;;;-145.70;100.00;64261.84;5019565;28;20044;-84
2022/04/09 03:49:33;;;;;;;11.00;2.75;;;;;;;-145.70;100.00;64261.84;5014448;28;20044;-85
2022/04/09 03:51:59;;;;;;;12.50;3.03;;;;;;;-145.70;100.00;64261.84;5017344;28;20037;-83
2022/04/09 03:54:25;;;;;;;15.93;2.53;;;;;;;-145.70;100.00;64261.84;5001531;28;20448;-82
2022/04/09 03:56:51;;;;;;;9.18;2.28;;;;;;;-145.70;100.00;64261.84;5020792;28;20103;-83
2022/04/09 03:59:17;;;;;;;9.80;2.28;;;;;;;-145.70;100.00;64261.84;5015417;28;20046;-84
2022/04/09 04:01:46;;;;;;;10.35;2.47;;;;;;;-145.70;100.00;64261.84;5023846;28;20095;-84
2022/04/09 04:04:11;;;;;;;7.47;1.65;;;;;;;-145.70;100.00;64261.84;5014666;28;20512;-84
2022/04/09 04:06:37;;;;;;;6.60;1.83;;;;;;;-145.70;100.00;64261.84;5023606;28;20056;-81
2022/04/09 04:09:03;;;;;;;16.83;2.92;;;;;;;-145.70;100.00;64261.84;5017416;28;20515;-82
2022/04/09 04:11:28;;;;;;;7.60;1.80;;;;;;;-145.70;100.00;64261.84;5002925;28;20042;-83
2022/04/09 04:13:54;;;;;;;6.75;2.17;;;;;;;-145.70;100.00;64261.84;5019997;28;20054;-82
2022/04/09 04:16:19;;;;;;;6.10;1.75;;;;;;;-145.70;100.00;64261.84;5019470;28;20049;-82
2022/04/09 04:18:45;;;;;;;8.48;2.47;;;;;;;-145.70;100.00;64261.84;5011951;28;20157;-84
2022/04/09 04:21:10;;;;;;;7.22;2.40;;;;;;;-145.70;100.00;64261.84;5014458;28;20102;-83
2022/04/09 04:23:35;;;;;;;8.95;2.40;;;;;;;-145.70;100.00;64261.84;5007866;28;20139;-82
2022/04/09 04:26:02;;;;;;;8.70;1.98;;;;;;;-145.70;100.00;64261.84;5023711;28;20048;-81
2022/04/09 04:28:27;;;;;;;12.68;2.55;;;;;;;-145.70;100.00;64261.84;4993677;28;20094;-81
2022/04/09 04:30:53;;;;;;;10.88;2.80;;;;;;;-145.70;100.00;64261.84;5006969;28;20536;-83
2022/04/09 04:33:18;;;;;;;8.98;3.03;;;;;;;-145.70;100.00;64261.84;5017042;28;20048;-83
2022/04/09 04:35:44;;;;;;;9.32;2.15;;;;;;;-145.70;100.00;64261.84;5023200;28;20077;-81
2022/04/09 04:38:11;;;;;;;9.55;2.20;;;;;;;-145.70;100.00;64261.84;5002387;28;20045;-85
2022/04/09 04:40:36;;;;;;;7.85;1.67;;;;;;;-145.70;100.00;64261.84;5017219;28;20132;-83
2022/04/09 04:43:02;;;;;;;9.88;2.80;;;;;;;-145.70;100.00;64261.84;5006798;28;20472;-85
2022/04/09 04:45:27;;;;;;;7.60;2.55;;;;;;;-145.70;100.00;64261.84;5017133;28;20052;-84
2022/04/09 04:47:53;;;;;;;9.57;2.08;;;;;;;-145.70;100.00;64261.84;5026429;28;20045;-84
2022/04/09 04:50:19;;;;;;;12.75;2.67;;;;;;;-145.70;100.00;64261.84;5004925;28;20389;-82
2022/04/09 04:52:45;;;;;;;6.70;2.03;;;;;;;-145.70;100.00;64261.84;4995561;28;20501;-82
2022/04/09 04:55:11;;;;;;;7.80;2.20;;;;;;;-145.70;100.00;64261.84;5015879;28;20057;-85
2022/04/09 04:57:46;;;;;;;10.70;2.40;;;;;;;-145.70;100.00;64261.84;5000982;28;20052;-85
2022/04/09 05:00:13;;;;;;;10.23;2.45;;;;;;;-145.70;100.00;64261.84;5024463;28;20049;-85
2022/04/09 05:02:38;;;;;;;10.68;2.92;;;;;;;-145.70;100.00;64261.84;5020515;28;20048;-81
2022/04/09 05:05:04;;;;;;;4.80;1.52;;;;;;;-145.70;100.00;64261.84;5027020;28;21336;-83
2022/04/09 05:07:49;;;;;;;7.18;1.88;;;;;;;-145.70;100.00;64261.84;5003427;28;20121;-84
2022/04/09 05:10:23;;;;;;;9.80;2.25;;;;;;;-145.70;100.00;64261.84;4982498;28;20046;-82
2022/04/09 05:12:51;;;;;;;6.70;1.80;;;;;;;-145.70;100.00;64261.84;5016582;28;20034;-83
2022/04/09 05:15:17;;;;;;;5.15;2.20;;;;;;;-145.70;100.00;64261.84;5013779;28;20054;-81
2022/04/09 05:17:43;;;;;;;7.45;1.90;;;;;;;-145.70;100.00;64261.84;5009508;28;20077;-83
2022/04/09 05:20:12;;;;;;;9.30;2.72;;;;;;;-145.70;100.00;64261.84;5012584;28;20562;-82
2022/04/09 05:22:43;;;;;;;8.70;2.37;;;;;;;-145.70;100.00;64261.84;5008885;28;20526;-82
2022/04/09 05:25:10;;;;;;;11.15;2.95;;;;;;;-145.70;100.00;64261.84;5011083;28;20045;-83
2022/04/09 05:27:36;;;;;;;8.55;3.22;;;;;;;-145.70;100.00;64261.84;5029841;28;20033;-83
2022/04/09 05:30:02;;;;;;;9.98;2.15;;;;;;;-145.70;100.00;64261.84;5025380;28;20437;-83
2022/04/09 05:32:27;;;;;;;7.68;2.53;;;;;;;-145.70;100.00;64261.84;5002710;28;20050;-82
2022/04/09 05:34:52;;;;;;;9.18;2.30;;;;;;;-145.70;100.00;64261.84;5014531;28;20046;-82
2022/04/09 05:37:18;;;;;;;8.98;2.42;;;;;;;-145.70;100.00;64261.84;5004595;28;20041;-82
2022/04/09 05:39:43;;;;;;;6.35;1.90;;;;;;;-145.70;100.00;64261.84;5004703;28;20030;-79
2022/04/09 05:42:10;;;;;;;8.27;1.65;;;;;;;-145.70;100.00;64261.84;5016555;28;20055;-82
2022/04/09 05:44:35;;;;;;;8.38;1.65;;;;;;;-145.70;100.00;64261.84;5013856;28;20681;-82
2022/04/09 05:47:01;;;;;;;10.38;3.38;;;;;;;-145.70;100.00;64261.84;5000500;28;20046;-84
2022/04/09 05:49:27;;;;;;;8.77;2.75;;;;;;;-145.70;100.00;64261.84;4982327;28;20050;-83
2022/04/09 05:51:52;;;;;;;6.10;1.70;;;;;;;-145.70;100.00;64261.84;5002841;28;20038;-82
2022/04/09 05:54:18;;;;;;;6.30;2.08;;;;;;;-145.70;100.00;64261.84;5010377;28;20460;-84
2022/04/09 05:56:43;;;;;;;12.80;2.65;;;;;;;-145.70;100.00;64261.84;5003863;28;20033;-83
2022/04/09 05:59:09;;;;;;;10.35;3.00;;;;;;;-145.70;100.00;64261.84;5018221;28;20045;-84
2022/04/09 06:01:34;;;;;;;14.98;3.00;;;;;;;-145.70;100.00;64261.84;4997714;28;20125;-84
2022/04/09 06:04:01;;;;;;;11.20;1.95;;;;;;;-145.70;100.00;64261.84;5018319;28;22259;-83
2022/04/09 06:06:27;;;;;;;6.25;1.98;;;;;;;-145.70;100.00;64261.84;5010992;28;20057;-82
2022/04/09 06:08:52;;;;;;;8.35;2.20;;;;;;;-145.70;100.00;64261.84;5009609;28;20040;-82
2022/04/09 06:11:18;;;;;;;6.30;1.52;;;;;;;-145.70;100.00;64261.84;5015531;28;20120;-82
2022/04/09 06:13:43;;;;;;;7.50;2.08;;;;;;;-145.70;100.00;64261.84;5014219;28;20041;-83
2022/04/09 06:16:09;;;;;;;11.02;2.03;;;;;;;-145.70;100.00;64261.84;5009163;28;20438;-81
2022/04/09 06:18:38;;;;;;;7.82;2.38;;;;;;;-145.70;100.00;64261.84;5026883;28;20048;-78
2022/04/09 06:21:05;;;;;;;9.55;1.92;;;;;;;-145.70;100.00;64261.84;5023983;28;20130;-79
2022/04/09 06:23:30;;;;;;;9.60;2.53;;;;;;;-145.70;100.00;64261.84;5023062;28;20030;-80
2022/04/09 06:25:56;;;;;;;7.95;2.75;;;;;;;-145.70;100.00;64261.84;5023441;28;20072;-79
2022/04/09 06:28:21;;;;;;;10.82;2.55;;;;;;;-145.70;100.00;64261.84;5022225;28;20768;-78
2022/04/09 06:30:46;;;;;;;10.00;2.95;;;;;;;-145.70;100.00;64261.84;5047092;23;20056;-82
2022/04/09 06:33:12;;;;;;;9.57;2.70;;;;;;;-145.70;100.00;64261.84;5049231;28;20418;-82
2022/04/09 06:35:37;;;;;;;9.55;2.13;;;;;;;-145.70;100.00;64261.84;5053292;28;20461;-82
2022/04/09 06:38:02;;;;;;;10.98;2.63;;;;;;;-145.70;100.00;64261.84;5048766;28;20040;-82
2022/04/09 06:40:28;;;;;;;5.60;2.15;;;;;;;-145.70;100.00;64261.84;5035200;28;20046;-82
2022/04/09 06:42:54;;;;;;;4.82;1.48;;;;;;;-145.70;100.00;64261.84;5017901;28;20037;-82
2022/04/09 06:45:19;;;;;;;7.78;2.83;;;;;;;-145.70;100.00;64261.84;5018877;28;20059;-82
2022/04/09 06:47:47;;;;;;;7.25;2.50;;;;;;;-145.70;100.00;64261.84;5040211;28;20124;-82
2022/04/09 06:50:13;;;;;;;7.70;1.70;;;;;;;-145.70;100.00;64261.84;5038596;28;20111;-82
2022/04/09 06:52:40;;;;;;;8.77;2.75;;;;;;;-145.70;100.00;64261.84;5021328;28;20052;-82
2022/04/09 06:55:06;;;;;;;6.93;2.28;;;;;;;-145.70;100.00;64261.84;5035412;28;20522;-82
2022/04/09 06:57:32;;;;;;;9.63;2.72;;;;;;;-145.70;100.00;64261.84;5039801;28;20048;-82
2022/04/09 07:00:00;;;;;;;5.60;1.40;;;;;;;-145.70;100.00;64261.84;5017836;28;20037;-82
2022/04/09 07:02:26;;;;;;;9.13;2.28;;;;;;;-145.70;100.00;64261.84;5038605;28;20044;-82
2022/04/09 07:04:53;;;;;;;3.30;1.40;;;;;;;-145.70;100.00;64261.84;5024370;28;20037;-82
2022/04/09 07:07:22;;;;;;;14.20;2.22;;;;;;;-145.70;100.00;64261.84;5035479;28;20037;-82
2022/04/09 07:09:48;;;;;;;6.68;1.70;;;;;;;-145.70;100.00;64261.84;5036435;28;20053;-82
2022/04/09 07:12:13;;;;;;;5.20;1.67;;;;;;;-145.70;100.00;64261.84;5037014;28;20041;-82
2022/04/09 07:14:39;;;;;;;6.65;1.70;;;;;;;-145.70;100.00;64261.84;5019951;28;20065;-82
2022/04/09 07:17:05;;;;;;;11.88;2.90;;;;;;;-145.70;100.00;64261.84;5036885;28;20084;-81
2022/04/09 07:19:31;;;;;;;8.20;2.20;;;;;;;-145.70;100.00;64261.84;5022260;28;20135;-83
2022/04/09 07:21:58;;;;;;;7.50;1.85;;;;;;;-145.70;100.00;64261.84;5035588;28;20056;-83
2022/04/09 07:24:23;;;;;;;9.07;2.70;;;;;;;-145.70;100.00;64261.84;5036077;28;20377;-83
2022/04/09 07:26:49;;;;;;;8.07;2.15;;;;;;;-145.70;100.00;64261.84;5037271;28;20119;-83
2022/04/09 07:29:14;;;;;;;6.70;1.40;;;;;;;-145.70;100.00;64261.84;5021290;28;20053;-81
2022/04/09 07:31:39;;;;;;;7.78;1.83;;;;;;;-145.70;100.00;64261.84;5039127;28;20508;-83
2022/04/09 07:34:05;;;;;;;8.38;1.58;;;;;;;-145.70;100.00;64261.84;5039711;28;20045;-83
2022/04/09 07:36:30;;;;;;;4.53;1.77;;;;;;;-145.70;100.00;64261.84;5036772;28;20122;-82
2022/04/09 07:38:55;;;;;;;7.63;1.88;;;;;;;-145.70;100.00;64261.84;5035888;28;20128;-83
2022/04/09 07:41:21;;;;;;;12.77;2.97;;;;;;;-145.70;100.00;64261.84;5046217;28;20061;-82
2022/04/09 07:43:47;;;;;;;7.03;2.22;;;;;;;-145.70;100.00;64261.84;5036730;28;20045;-82
2022/04/09 07:46:12;;;;;;;10.93;2.33;;;;;;;-145.70;100.00;64261.84;5040726;28;20138;-82
2022/04/09 07:48:38;;;;;;;10.13;2.17;;;;;;;-145.70;100.00;64261.84;5035541;28;20056;-83
2022/04/09 07:51:03;;;;;;;7.70;2.20;;;;;;;-145.70;100.00;64261.84;5017794;28;20099;-83
2022/04/09 07:53:29;;;;;;;8.90;1.92;;;;;;;-145.70;100.00;64261.84;5043396;28;20639;-82
2022/04/09 07:55:54;;;;;;;9.88;1.90;;;;;;;-145.70;100.00;64261.84;5038737;28;20715;-82
2022/04/09 07:58:19;;;;;;;12.35;2.35;;;;;;;-145.70;100.00;64261.84;5027300;28;20041;-82
2022/04/09 08:00:45;;;;;;;8.98;2.00;;;;;;;-145.70;100.00;64261.84;5037166;28;20411;-82
2022/04/09 08:03:11;;;;;;;8.93;2.38;;;;;;;-145.70;100.00;64261.84;5044852;28;20044;-82
2022/04/09 08:05:37;;;;;;;5.05;1.50;;;;;;;-145.70;100.00;64261.84;5024444;28;20122;-82
2022/04/09 08:08:04;;;;;;;10.77;1.85;;;;;;;-145.70;100.00;64261.84;5042262;28;20036;-83
2022/04/09 08:10:30;;;;;;;7.47;2.85;;;;;;;-145.70;100.00;64261.84;5041570;28;20048;-83
2022/04/09 08:12:56;;;;;;;8.88;1.67;;;;;;;-145.70;100.00;64261.84;5037531;28;20036;-83
2022/04/09 08:15:23;;;;;;;6.03;1.90;;;;;;;-145.70;100.00;64261.84;5036727;28;20137;-82
2022/04/09 08:17:49;;;;;;;12.23;2.78;;;;;;;-145.70;100.00;64261.84;5041671;28;20527;-82
2022/04/09 08:20:18;;;;;;;9.05;2.30;;;;;;;-145.70;100.00;64261.84;5034899;28;20701;-83
2022/04/09 08:22:44;;;;;;;7.90;2.58;;;;;;;-145.70;100.00;64261.84;5023973;28;20612;-82
2022/04/09 08:25:09;;;;;;;6.78;2.05;;;;;;;-145.70;100.00;64261.84;5038716;28;20132;-82
2022/04/09 08:27:35;;;;;;;6.90;1.90;;;;;;;-145.70;100.00;64261.84;5042145;28;20491;-83
2022/04/09 08:30:04;;;;;;;7.55;2.20;;;;;;;-145.70;100.00;64261.84;5044561;28;20068;-82
2022/04/09 08:32:29;;;;;;;6.70;1.98;;;;;;;-145.70;100.00;64261.84;5024963;28;20112;-82
2022/04/09 08:34:55;;;;;;;6.15;1.90;;;;;;;-145.70;100.00;64261.84;5042247;28;20127;-82
2022/04/09 08:37:22;;;;;;;5.47;1.60;;;;;;;-145.70;100.00;64261.84;5024533;28;20125;-83
2022/04/09 08:39:48;;;;;;;6.28;1.80;;;;;;;-145.70;100.00;64261.84;5041868;28;20045;-82
2022/04/09 08:42:14;;;;;;;4.80;1.17;;;;;;;-145.70;100.00;64261.84;5040999;28;20097;-82
2022/04/09 08:44:40;;;;;;;5.93;1.55;;;;;;;-145.70;100.00;64261.84;5038434;28;20041;-82
2022/04/09 08:47:05;;;;;;;5.93;1.63;;;;;;;-145.70;100.00;64261.84;5030390;28;20110;-82
2022/04/09 08:49:36;;;;;;;9.52;2.10;;;;;;;-145.70;100.00;64261.84;5038018;28;20037;-82
2022/04/09 08:52:02;;;;;;;5.85;1.92;;;;;;;-145.70;100.00;64261.84;5043671;28;20041;-83
2022/04/09 08:54:29;;;;;;;4.82;1.52;;;;;;;-145.70;100.00;64261.84;5045354;28;20501;-82
2022/04/09 08:56:54;;;;;;;7.93;1.33;;;;;;;-145.70;100.00;64261.84;5039632;28;20459;-82
2022/04/09 08:59:20;;;;;;;7.45;2.22;;;;;;;-145.70;100.00;64261.84;5041209;28;20028;-82
2022/04/09 09:01:45;;;;;;;6.35;1.42;;;;;;;-145.70;100.00;64261.84;5042969;28;20041;-82
2022/04/09 09:04:11;;;;;;;5.97;1.63;;;;;;;-145.70;100.00;64261.84;5027519;28;20085;-82
2022/04/09 09:06:40;;;;;;;8.52;2.17;;;;;;;-145.70;100.00;64261.84;5035905;28;20554;-82
2022/04/09 09:09:06;;;;;;;7.10;2.20;;;;;;;-145.70;100.00;64261.84;5046417;28;20051;-82
2022/04/09 09:11:48;;;;;;;7.63;2.03;;;;;;;-145.70;100.00;64261.84;5034022;28;20358;-82
2022/04/09 09:14:33;;;;;;;5.80;2.00;;;;;;;-145.70;100.00;64261.84;5044841;28;20044;-82
2022/04/09 09:17:00;;;;;;;7.45;1.80;;;;;;;-145.70;100.00;64261.84;5043820;28;20726;-82
2022/04/09 09:19:52;;;;;;;5.28;1.00;;;;;;;-145.70;100.00;64261.84;5025985;28;20153;-82
2022/04/09 09:22:18;;;;;;;4.28;1.25;;;;;;;-145.70;100.00;64261.84;5014801;28;20479;-82
2022/04/09 09:25:04;;;;;;;9.65;1.40;;;;;;;-145.70;100.00;64261.84;5032693;28;20827;-82
2022/04/09 09:27:30;;;;;;;6.53;1.58;;;;;;;-145.70;100.00;64261.84;5014748;28;20040;-82
2022/04/09 09:29:56;;;;;;;7.40;1.23;;;;;;;-145.70;100.00;64261.84;5044883;28;20132;-82
2022/04/09 09:32:26;;;;;;;5.85;1.13;;;;;;;-145.70;100.00;64261.84;5017105;28;20033;-82
2022/04/09 09:35:01;;;;;;;4.03;1.10;;;;;;;-145.70;100.00;64261.84;5047820;28;20095;-82
2022/04/09 09:37:28;;;;;;;2.50;0.68;;;;;;;-145.70;100.00;64261.84;5051351;28;20037;-82
2022/04/09 09:39:54;;;;;;;4.57;1.13;;;;;;;-145.70;100.00;64261.84;5048076;28;20041;-82
2022/04/09 09:42:25;;;;;;;3.08;0.88;;;;;;;-145.70;100.00;64261.84;5032646;28;20040;-82
2022/04/09 09:44:51;;;;;;;3.13;1.10;;;;;;;-145.70;100.00;64261.84;5046027;28;20040;-82
2022/04/09 09:47:17;;;;;;;3.72;0.98;;;;;;;-145.70;100.00;64261.84;5049896;28;20047;-82
2022/04/09 09:49:47;;;;;;;1.60;0.70;;;;;;;-145.70;100.00;64261.84;5048968;28;20049;-82
2022/04/09 09:52:13;;;;;;;4.07;1.15;;;;;;;-145.70;100.00;64261.84;5051656;28;20063;-82
2022/04/09 09:54:57;;;;;;;7.93;1.90;;;;;;;-145.70;100.00;64261.84;5058027;28;20045;-82
2022/04/09 09:57:26;;;;;;;6.90;1.88;;;;;;;-145.70;100.00;64261.84;5038668;28;20103;-82
2022/04/09 09:59:53;;;;;;;6.00;3.00;;;;;;;-145.70;100.00;64261.84;5055607;28;20565;-82
2022/04/09 10:02:21;;;;;;;5.70;1.73;;;;;;;-145.70;100.00;64261.84;5052211;28;20040;-82
2022/04/09 10:04:47;;;;;;;7.87;1.93;;;;;;;-145.70;100.00;64261.84;5022408;28;20133;-82
2022/04/09 10:07:15;;;;;;;6.25;1.95;;;;;;;-145.70;100.00;64261.84;5026562;28;20335;-82
2022/04/09 10:09:41;;;;;;;5.43;1.60;;;;;;;-145.70;100.00;64261.84;5026527;28;20099;-83
2022/04/09 10:12:11;;;;;;;3.13;0.90;;;;;;;-145.70;100.00;64261.84;5036923;28;20438;-82
2022/04/09 10:14:40;;;;;;;2.53;1.17;;;;;;;-145.70;100.00;64261.84;5023995;28;20048;-83
2022/04/09 10:17:10;;;;;;;3.17;1.05;;;;;;;-145.70;100.00;64261.84;5029050;28;20774;-83
2022/04/09 10:19:43;;;;;;;5.18;1.30;;;;;;;-145.70;100.00;64261.84;5034164;28;20406;-82
2022/04/09 10:22:11;;;;;;;3.85;1.52;;;;;;;-145.70;100.00;64261.84;5040465;28;20071;-82
2022/04/09 10:24:37;;;;;;;3.22;1.05;;;;;;;-145.70;100.00;64261.84;5041196;28;20049;-82
2022/04/09 10:27:04;;;;;;;4.18;1.00;;;;;;;-145.70;100.00;64261.84;5041980;28;20045;-83
2022/04/09 10:29:47;;;;;;;2.45;0.90;;;;;;;-145.70;100.00;64261.84;5023384;28;20037;-83
2022/04/09 10:32:46;;;;;;;1.77;0.80;;;;;;;-145.70;100.00;64261.84;5040518;28;20500;-83
2022/04/09 10:35:39;;;;;;;3.17;1.00;;;;;;;-145.70;100.00;64261.84;5031137;28;20056;-82
2022/04/09 10:38:10;;;;;;;2.45;0.95;;;;;;;-145.70;100.00;64261.84;5036683;28;20049;-83
2022/04/09 10:40:45;;;;;;;3.08;0.73;;;;;;;-145.70;100.00;64261.84;5024000;28;20029;-82
2022/04/09 10:43:37;;;;;;;3.05;1.00;;;;;;;-145.70;100.00;64261.84;5041277;28;20049;-83
2022/04/09 10:46:05;;;;;;;4.95;1.35;;;;;;;-145.70;100.00;64261.84;5025008;28;20044;-82
2022/04/09 10:48:35;;;;;;;2.72;0.93;;;;;;;-145.70;100.00;64261.84;5022681;28;20100;-83
2022/04/09 10:51:04;;;;;;;5.15;0.95;;;;;;;-145.70;100.00;64261.84;5045601;28;20037;-83
2022/04/09 10:53:34;;;;;;;5.10;1.63;;;;;;;-145.70;100.00;64261.84;5041884;28;20041;-82
2022/04/09 10:56:13;;;;;;;6.60;1.50;;;;;;;-145.70;100.00;64261.84;5022390;28;20033;-82
2022/04/09 10:59:17;;;;;;;6.30;1.35;;;;;;;-145.70;100.00;64261.84;5020423;28;20560;-83
2022/04/09 11:01:46;;;;;;;5.43;1.42;;;;;;;-145.70;100.00;64261.84;5021797;28;20504;-82
2022/04/09 11:04:34;;;;;;;2.13;0.73;;;;;;;-145.70;100.00;64261.84;5035966;28;20099;-83
2022/04/09 11:07:07;;;;;;;4.95;0.90;;;;;;;-145.70;100.00;64261.84;5041677;28;20067;-82